Latest Weather Observations for Nuriootpa

IDS60801

Issued at 11:31 pm CST Tuesday 4 August 2015 (issued every 30 minutes, with the page automatically refreshed every 10 minutes)

About weather observations | Map of weather stations | Latest weather observations for SA | Other Formats
Station Details ID: 023373 Name: NURIOOTPA VITICULTURAL Lat: -34.48 Lon: 139.01 Height: 275.0 m
Data from the previous 72 hours. | See also: Recent months at Nuriootpa
Date/Time
CST
Temp
°C
App
Temp
°C
Dew
Point
Rel
Hum
%
Delta-T
°C
Wind Press
QNH
hPa
Press
MSL
hPa
Rain
since 9 am
mm
Dir
 
Spd
km/h
Gust
km/h
Spd
kts
Gust
kts
04/11:30pm 8.3 2.0 7.5 95 0.4 WNW 30 44 16 24 1022.3 1022.6 0.6
04/11:00pm 8.2 2.7 7.4 95 0.4 W 26 37 14 20 1022.4 1022.7 0.6
04/10:34pm 8.3 2.3 7.0 91 0.6 W 28 46 15 25 1022.5 1022.8 0.6
04/10:30pm 8.2 2.6 7.1 93 0.5 W 26 39 14 21 1022.7 1023.0 0.6
04/10:00pm 8.0 2.4 7.2 95 0.4 W 26 35 14 19 1022.9 1023.2 0.6
04/09:30pm 8.0 2.0 7.2 95 0.4 W 28 39 15 21 1023.1 1023.4 0.6
04/09:00pm 7.9 2.6 7.0 94 0.4 W 24 33 13 18 1023.3 1023.6 0.6
04/08:30pm 8.1 2.8 6.6 90 0.7 W 24 32 13 17 1023.5 1023.8 0.6
04/08:00pm 8.1 3.2 6.8 91 0.6 W 22 30 12 16 1023.6 1023.9 0.6
04/07:30pm 8.2 3.3 7.1 93 0.5 W 22 33 12 18 1023.7 1024.0 0.6
04/07:00pm 8.3 3.5 7.2 93 0.5 W 22 32 12 17 1023.7 1024.0 0.6
04/06:30pm 8.0 4.2 7.4 96 0.3 W 17 22 9 12 1023.7 1024.0 0.6
04/06:00pm 8.0 4.1 6.9 93 0.5 WSW 17 28 9 15 1023.8 1024.1 0.6
04/05:30pm 8.2 3.8 7.4 95 0.4 WSW 20 30 11 16 1023.8 1024.1 0.6
04/05:00pm 8.0 2.8 7.2 95 0.4 SW 24 43 13 23 1023.9 1024.2 0.6
04/04:30pm 8.4 3.3 7.6 95 0.4 WSW 24 33 13 18 1024.1 1024.4 0.6
04/04:00pm 9.4 4.5 7.1 85 1.1 W 22 32 12 17 1024.0 1024.3 0.0
04/03:30pm 8.9 4.5 7.6 91 0.6 WSW 20 26 11 14 1024.3 1024.6 0.0
04/03:00pm 10.1 5.3 5.6 73 2.1 W 20 32 11 17 1024.4 1024.7 0.0
04/02:30pm 10.3 4.3 5.3 71 2.3 W 26 35 14 19 1024.4 1024.7 0.0
04/02:00pm 10.5 4.7 4.5 66 2.7 WSW 24 35 13 19 1024.8 1025.1 0.0
04/01:30pm 10.1 4.3 4.6 68 2.5 WSW 24 33 13 18 1025.0 1025.3 0.0
04/01:00pm 10.0 4.1 5.7 74 2.0 WSW 26 37 14 20 1025.7 1026.0 0.0
04/12:30pm 10.2 4.6 5.4 72 2.2 W 24 37 13 20 1025.8 1026.1 0.0
04/12:00pm 9.4 3.8 5.2 75 1.9 W 24 32 13 17 1026.4 1026.7 0.0
04/11:30am 9.3 3.8 6.1 80 1.5 W 24 30 13 16 1026.9 1027.2 0.0
04/11:00am 8.4 3.7 6.2 86 1.0 W 20 30 11 16 1027.1 1027.4 0.0
04/10:30am 7.9 3.6 7.0 94 0.4 W 19 26 10 14 1027.5 1027.8 0.0
04/10:00am 7.5 3.8 6.4 93 0.5 W 15 22 8 12 1027.5 1027.8 0.0
04/09:30am 6.8 2.7 6.4 97 0.2 W 17 22 9 12 1027.7 1028.0 0.0
04/09:00am 6.6 3.3 6.4 99 0.1 W 13 19 7 10 1027.5 1027.8 2.0
04/08:30am 6.0 3.3 5.8 99 0.1 WSW 9 13 5 7 1027.3 1027.6 2.0
04/08:00am 5.9 3.2 5.7 99 0.1 W 9 11 5 6 1027.1 1027.4 2.0
04/07:30am 5.5 3.7 5.3 99 0.1 SSW 4 9 2 5 1027.1 1027.4 2.0
04/07:00am 5.3 4.2 5.3 100 0.0 CALM 0 7 0 4 1026.9 1027.2 1.8
04/06:30am 5.3 3.5 5.3 100 0.0 W 4 7 2 4 1026.7 1027.0 1.8
04/06:00am 5.3 2.5 5.1 99 0.1 W 9 13 5 7 1026.7 1027.0 1.8
04/05:30am 5.4 3.0 5.4 100 0.0 WSW 7 11 4 6 1026.6 1026.9 1.8
04/05:00am 5.5 2.8 5.5 100 0.0 W 9 11 5 6 1026.4 1026.7 1.8
04/04:30am 5.7 3.4 5.5 99 0.1 WSW 7 9 4 5 1026.5 1026.8 1.8
04/04:00am 5.6 3.3 5.6 100 0.0 SW 7 9 4 5 1026.3 1026.6 1.8
04/03:30am 5.8 3.1 5.6 99 0.1 S 9 13 5 7 1026.4 1026.7 1.6
04/03:00am 5.6 3.3 5.6 100 0.0 W 7 9 4 5 1026.5 1026.8 1.2
04/02:30am 5.6 3.5 5.6 100 0.0 WNW 6 7 3 4 1026.6 1026.9 1.2
04/02:00am 5.9 3.6 5.9 100 0.0 SSW 7 9 4 5 1026.9 1027.2 1.0
04/01:30am 5.7 3.4 5.5 99 0.1 SW 7 9 4 5 1026.9 1027.2 1.0
04/01:00am 6.1 3.8 5.9 99 0.1 WSW 7 9 4 5 1026.9 1027.2 1.0
04/12:30am 6.3 4.0 5.9 97 0.2 WSW 7 9 4 5 1027.0 1027.3 1.0
04/12:00am 6.2 4.1 6.0 99 0.1 SW 6 7 3 4 1027.1 1027.4 1.0
 
Date/Time
CST
Temp
°C
App
Temp
°C
Dew
Point
Rel
Hum
%
Delta-T
°C
Wind Press
QNH
hPa
Press
MSL
hPa
Rain
since 9 am
mm
Dir
 
Spd
km/h
Gust
km/h
Spd
kts
Gust
kts
03/11:30pm 6.5 4.4 6.5 100 0.0 W 7 9 4 5 1027.0 1027.3 1.0
03/11:00pm 6.5 4.3 6.3 99 0.1 WSW 7 9 4 5 1026.9 1027.2 1.0
03/10:30pm 6.3 4.0 5.9 97 0.2 WSW 7 9 4 5 1027.0 1027.3 1.0
03/10:00pm 6.8 4.6 6.1 95 0.3 SW 7 11 4 6 1027.1 1027.4 1.0
03/09:30pm 7.1 4.2 6.7 97 0.2 WSW 11 15 6 8 1027.3 1027.6 0.8
03/09:00pm 7.3 4.0 6.4 94 0.4 W 13 15 7 8 1027.1 1027.4 0.4
03/08:30pm 7.2 4.6 6.3 94 0.4 SW 9 13 5 7 1027.1 1027.4 0.4
03/08:00pm 7.5 4.9 6.2 91 0.6 WSW 9 13 5 7 1026.9 1027.2 0.4
03/07:30pm 7.8 4.5 6.3 90 0.7 WSW 13 17 7 9 1026.7 1027.0 0.4
03/07:00pm 7.8 4.8 5.8 87 0.9 WSW 11 17 6 9 1026.5 1026.8 0.4
03/06:30pm 7.8 5.2 6.1 89 0.8 WSW 9 15 5 8 1026.3 1026.6 0.4
03/06:00pm 8.2 4.8 5.8 85 1.1 WSW 13 17 7 9 1026.1 1026.4 0.4
03/05:30pm 8.5 5.2 6.3 86 1.0 SW 13 19 7 10 1026.0 1026.3 0.4
03/05:00pm 9.3 4.9 4.9 74 2.0 WSW 17 30 9 16 1025.7 1026.0 0.4
03/04:30pm 9.9 5.5 4.6 69 2.4 WSW 17 22 9 12 1025.4 1025.8 0.4
03/04:00pm 10.2 5.1 4.2 66 2.7 WSW 20 30 11 16 1025.3 1025.7 0.4
03/03:30pm 10.1 4.9 5.3 72 2.2 WSW 22 32 12 17 1025.2 1025.6 0.4
03/03:00pm 10.7 4.5 4.3 64 2.9 WSW 26 33 14 18 1024.6 1024.9 0.4
03/02:30pm 10.1 5.3 4.6 68 2.5 WSW 19 28 10 15 1024.4 1024.7 0.4
03/02:00pm 10.3 3.7 4.3 66 2.7 SW 28 35 15 19 1024.4 1024.7 0.4
03/01:30pm 11.6 5.1 4.9 63 3.1 WSW 28 43 15 23 1024.3 1024.6 0.4
03/01:00pm 11.2 5.7 5.9 70 2.5 WSW 24 33 13 18 1024.6 1024.9 0.4
03/12:30pm 9.7 5.3 7.4 85 1.1 WSW 20 30 11 16 1024.9 1025.2 0.4
03/12:00pm 9.6 4.4 7.3 85 1.1 SW 24 33 13 18 1025.2 1025.6 0.2
03/11:30am 10.5 5.1 6.5 76 1.9 WSW 24 33 13 18 1025.2 1025.6 0.0
03/11:00am 10.4 4.5 5.9 73 2.1 SW 26 37 14 20 1025.2 1025.6 0.0
03/10:30am 10.0 3.6 5.2 72 2.2 SW 28 39 15 21 1025.3 1025.7 0.0
03/10:00am 9.8 3.8 7.1 83 1.3 WSW 28 39 15 21 1025.0 1025.3 0.0
03/09:30am 9.2 4.5 7.7 90 0.7 WSW 22 35 12 19 1024.8 1025.1 0.0
03/09:00am 8.9 4.6 7.9 93 0.5 WSW 20 35 11 19 1024.5 1024.8 2.8
03/08:30am 8.4 2.6 7.8 96 0.3 WSW 28 37 15 20 1024.1 1024.4 2.8
03/08:00am 8.2 3.1 7.8 97 0.2 WSW 24 33 13 18 1023.7 1024.0 2.8
03/07:30am 8.2 3.8 7.6 96 0.3 W 20 26 11 14 1023.5 1023.8 2.6
03/07:00am 8.1 2.9 7.3 95 0.4 WSW 24 33 13 18 1023.2 1023.5 2.2
03/06:30am 8.2 3.3 7.1 93 0.5 W 22 33 12 18 1023.0 1023.3 2.0
03/06:00am 8.0 3.5 6.9 93 0.5 W 20 33 11 18 1022.8 1023.1 2.0
03/05:30am 8.2 3.1 7.8 97 0.2 W 24 41 13 22 1022.7 1023.0 2.0
03/05:00am 8.3 3.6 7.9 97 0.2 WSW 22 32 12 17 1022.6 1022.9 1.8
03/04:31am 8.5 1.9 7.7 95 0.4 WSW 32 50 17 27 1022.2 1022.5 1.8
03/04:30am 8.5 1.7 7.5 93 0.5 WSW 33 50 18 27 1022.1 1022.3 1.8
03/04:00am 8.8 2.6 8.0 95 0.4 WSW 30 48 16 26 1022.0 1022.2 1.6
03/03:32am 8.6 2.4 8.0 96 0.3 WSW 30 48 16 26 1022.0 1022.2 1.4
03/03:30am 8.6 2.0 7.8 95 0.4 WSW 32 48 17 26 1022.1 1022.3 1.4
03/03:17am 8.8 2.7 8.4 97 0.2 W 30 48 16 26 1022.0 1022.2 1.2
03/03:00am 8.7 2.6 8.3 97 0.2 W 30 43 16 23 1022.1 1022.3 1.2
03/02:30am 8.6 3.0 8.6 100 0.0 WNW 28 37 15 20 1021.7 1022.0 1.0
03/02:00am 8.5 3.6 8.3 99 0.1 W 24 35 13 19 1022.0 1022.2 1.0
03/01:30am 8.5 2.7 8.1 97 0.2 W 28 43 15 23 1022.1 1022.3 1.0
03/01:00am 8.6 2.9 8.2 97 0.2 W 28 43 15 23 1021.9 1022.1 0.4
03/12:30am 8.6 3.2 8.2 97 0.2 W 26 35 14 19 1022.1 1022.3 0.4
03/12:00am 8.5 3.1 7.9 96 0.3 WNW 26 35 14 19 1022.1 1022.3 0.4
 
Date/Time
CST
Temp
°C
App
Temp
°C
Dew
Point
Rel
Hum
%
Delta-T
°C
Wind Press
QNH
hPa
Press
MSL
hPa
Rain
since 9 am
mm
Dir
 
Spd
km/h
Gust
km/h
Spd
kts
Gust
kts
02/11:30pm 8.6 2.8 8.0 96 0.3 WNW 28 39 15 21 1022.1 1022.3 0.4
02/11:00pm 8.9 4.3 8.1 95 0.4 WNW 22 32 12 17 1022.2 1022.5 0.4
02/10:30pm 8.8 3.8 8.0 95 0.4 WNW 24 37 13 20 1022.3 1022.6 0.4
02/10:00pm 8.8 3.4 8.2 96 0.3 WNW 26 35 14 19 1022.3 1022.6 0.4
02/09:30pm 8.8 3.8 8.2 96 0.3 W 24 33 13 18 1022.3 1022.6 0.4
02/09:00pm 9.0 3.3 8.2 95 0.4 W 28 37 15 20 1022.1 1022.3 0.4
02/08:30pm 9.2 3.9 8.4 95 0.4 W 26 41 14 22 1021.7 1022.0 0.4
02/08:00pm 9.3 4.0 8.3 93 0.5 W 26 39 14 21 1021.5 1021.8 0.4
02/07:30pm 9.3 3.9 8.1 92 0.6 W 26 39 14 21 1021.3 1021.6 0.4
02/07:00pm 9.3 3.6 8.5 95 0.4 WNW 28 41 15 22 1021.1 1021.4 0.4
02/06:30pm 9.1 3.3 8.1 93 0.5 WNW 28 37 15 20 1020.9 1021.2 0.4
02/06:00pm 9.4 4.4 8.2 92 0.6 WNW 24 33 13 18 1020.7 1021.0 0.4
02/05:30pm 9.4 4.4 8.2 92 0.6 W 24 39 13 21 1020.3 1020.6 0.4
02/05:00pm 9.6 3.9 8.2 91 0.7 W 28 37 15 20 1020.1 1020.4 0.4
02/04:30pm 9.6 4.6 8.2 91 0.7 W 24 37 13 20 1020.0 1020.3 0.2
02/04:00pm 10.6 3.6 6.8 77 1.8 W 33 52 18 28 1019.9 1020.2 0.2
02/03:39pm 11.2 5.3 7.3 77 1.9 W 28 46 15 25 1019.8 1020.1 0.2
02/03:30pm 10.7 3.7 6.7 76 1.9 W 33 44 18 24 1019.7 1020.0 0.2
02/03:08pm 10.8 4.8 7.1 78 1.8 W 28 48 15 26 1019.6 1019.9 0.2
02/03:00pm 10.4 5.7 7.9 84 1.2 W 22 33 12 18 1019.6 1019.9 0.2
02/02:35pm 10.2 3.3 7.3 82 1.4 W 33 52 18 28 1019.4 1019.7 0.0
02/02:30pm 10.7 3.6 6.3 74 2.1 W 33 48 18 26 1019.3 1019.6 0.0
02/02:15pm 11.1 4.8 7.2 77 1.9 W 30 48 16 26 1019.3 1019.6 0.0
02/02:00pm 11.0 4.1 6.6 74 2.1 W 32 48 17 26 1019.3 1019.6 0.0
02/01:30pm 11.2 4.1 6.6 73 2.2 W 33 52 18 28 1019.2 1019.5 0.0
02/01:00pm 11.6 4.6 6.8 72 2.3 W 33 52 18 28 1019.3 1019.6 0.0
02/12:59pm 11.9 5.0 7.2 73 2.3 W 33 52 18 28 1019.3 1019.6 0.0
02/12:30pm 11.3 4.3 6.2 71 2.4 W 32 48 17 26 1019.6 1019.9 0.0
02/12:04pm 10.8 4.4 5.4 69 2.5 W 28 50 15 27 1019.7 1020.0 0.0
02/12:00pm 11.1 4.9 6.3 72 2.3 W 28 43 15 23 1019.8 1020.1 0.0
02/11:47am 10.8 4.1 5.4 69 2.5 W 30 48 16 26 1019.9 1020.2 0.0
02/11:30am 9.9 2.9 6.1 77 1.8 W 32 46 17 25 1020.1 1020.4 0.0
02/11:00am 9.7 3.4 5.8 77 1.8 W 28 46 15 25 1020.2 1020.5 0.0
02/10:54am 9.8 3.5 5.9 77 1.8 W 28 46 15 25 1020.3 1020.6 0.0
02/10:30am 9.9 3.1 5.1 72 2.2 W 30 43 16 23 1020.2 1020.5 0.0
02/10:00am 9.5 3.1 5.1 74 2.0 W 28 39 15 21 1020.0 1020.3 0.0
02/09:30am 9.1 3.9 5.6 79 1.6 W 22 32 12 17 1019.8 1020.1 0.0
02/09:02am - - - - - - - - - - - - -
02/09:00am 8.2 2.8 6.3 88 0.9 W 24 33 13 18 1019.6 1019.9 6.8
02/08:30am 7.3 2.7 5.8 90 0.7 W 19 28 10 15 1019.6 1019.9 6.8
02/08:00am 7.5 2.8 5.0 84 1.1 W 19 24 10 13 1019.5 1019.8 6.8
02/07:30am 6.7 2.0 6.0 95 0.3 W 20 28 11 15 1019.1 1019.4 6.8
02/07:00am 6.4 1.8 5.7 95 0.3 W 19 26 10 14 1018.9 1019.1 6.8
02/06:30am 6.3 2.1 5.9 97 0.2 W 17 24 9 13 1018.5 1018.7 6.8
02/06:00am 6.1 1.5 5.7 97 0.2 W 19 26 10 14 1018.3 1018.5 6.8
02/05:30am 6.0 2.2 5.6 97 0.2 W 15 24 8 13 1018.1 1018.3 6.8
02/05:00am 5.7 2.6 5.5 99 0.1 WSW 11 17 6 9 1017.9 1018.2 6.8
02/04:30am 5.8 3.1 5.6 99 0.1 WSW 9 15 5 8 1017.7 1018.0 6.8
02/04:00am 6.1 3.8 5.9 99 0.1 W 7 9 4 5 1017.8 1018.1 6.8
02/03:30am 6.3 3.7 5.9 97 0.2 W 9 13 5 7 1018.1 1018.3 6.8
02/03:00am 6.3 4.0 5.9 97 0.2 WSW 7 11 4 6 1018.1 1018.3 6.8
02/02:30am 6.2 3.5 5.8 97 0.2 WSW 9 13 5 7 1018.4 1018.6 6.8
02/02:00am 6.1 4.0 5.7 97 0.2 SW 6 7 3 4 1017.9 1018.2 6.8
02/01:30am 6.3 4.0 5.9 97 0.2 W 7 9 4 5 1018.6 1018.8 6.8
02/01:00am 6.3 3.7 5.9 97 0.2 WSW 9 13 5 7 1018.5 1018.7 6.8
02/12:30am 6.3 3.7 5.9 97 0.2 WSW 9 11 5 6 1018.4 1018.6 6.6
02/12:00am 6.4 3.7 5.7 95 0.3 SW 9 11 5 6 1018.6 1018.8 6.2

Other Formats:

Comma delimited format used in spreadsheet applications
http://www.bom.gov.au/fwo/IDS60801/IDS60801.94681.axf

JavaScript Object Notation format (JSON) in row-major order
http://www.bom.gov.au/fwo/IDS60801/IDS60801.94681.json